sensor_id;sensor_type;location;lat;lon;timestamp;temperature;humidity
67603;DHT22;54417;47.454;18.918;2022-10-31T00:03:00;12.16;91.11
67603;DHT22;54417;47.454;18.918;2022-10-31T00:08:24;12.21;91.19
67603;DHT22;54417;47.454;18.918;2022-10-31T00:13:48;12.22;90.99
67603;DHT22;54417;47.454;18.918;2022-10-31T00:19:13;12.21;90.95
67603;DHT22;54417;47.454;18.918;2022-10-31T00:24:36;12.14;90.99
67603;DHT22;54417;47.454;18.918;2022-10-31T00:30:00;12.20;90.85
67603;DHT22;54417;47.454;18.918;2022-10-31T00:35:25;12.28;90.72
67603;DHT22;54417;47.454;18.918;2022-10-31T00:40:49;12.25;90.91
67603;DHT22;54417;47.454;18.918;2022-10-31T00:46:13;12.31;90.89
67603;DHT22;54417;47.454;18.918;2022-10-31T00:51:38;12.32;90.58
67603;DHT22;54417;47.454;18.918;2022-10-31T00:57:02;12.28;90.39
67603;DHT22;54417;47.454;18.918;2022-10-31T01:02:26;12.25;90.33
67603;DHT22;54417;47.454;18.918;2022-10-31T01:07:51;12.22;90.49
67603;DHT22;54417;47.454;18.918;2022-10-31T01:13:14;12.20;90.44
67603;DHT22;54417;47.454;18.918;2022-10-31T01:18:40;12.16;90.54
67603;DHT22;54417;47.454;18.918;2022-10-31T01:24:06;12.18;90.48
67603;DHT22;54417;47.454;18.918;2022-10-31T01:29:32;12.18;90.65
67603;DHT22;54417;47.454;18.918;2022-10-31T01:34:56;12.01;90.86
67603;DHT22;54417;47.454;18.918;2022-10-31T01:40:21;11.81;91.04
67603;DHT22;54417;47.454;18.918;2022-10-31T01:45:50;11.81;91.13
67603;DHT22;54417;47.454;18.918;2022-10-31T01:51:15;11.94;91.16
67603;DHT22;54417;47.454;18.918;2022-10-31T01:56:45;11.95;90.99
67603;DHT22;54417;47.454;18.918;2022-10-31T02:02:11;12.04;90.91
67603;DHT22;54417;47.454;18.918;2022-10-31T02:07:39;12.04;90.94
67603;DHT22;54417;47.454;18.918;2022-10-31T02:13:07;12.02;91.00
67603;DHT22;54417;47.454;18.918;2022-10-31T02:18:38;12.05;91.01
67603;DHT22;54417;47.454;18.918;2022-10-31T02:24:21;12.14;90.97
67603;DHT22;54417;47.454;18.918;2022-10-31T02:30:02;12.18;90.75
67603;DHT22;54417;47.454;18.918;2022-10-31T02:35:40;12.17;90.57
67603;DHT22;54417;47.454;18.918;2022-10-31T02:41:11;12.20;90.48
67603;DHT22;54417;47.454;18.918;2022-10-31T02:46:48;12.18;90.46
67603;DHT22;54417;47.454;18.918;2022-10-31T02:52:17;12.18;90.32
67603;DHT22;54417;47.454;18.918;2022-10-31T02:57:42;12.08;90.41
67603;DHT22;54417;47.454;18.918;2022-10-31T03:03:10;12.05;90.34
67603;DHT22;54417;47.454;18.918;2022-10-31T03:08:42;12.00;90.63
67603;DHT22;54417;47.454;18.918;2022-10-31T03:14:14;11.90;90.84
67603;DHT22;54417;47.454;18.918;2022-10-31T03:19:43;11.93;90.79
67603;DHT22;54417;47.454;18.918;2022-10-31T03:25:11;11.91;90.79
67603;DHT22;54417;47.454;18.918;2022-10-31T03:30:38;11.98;90.64
67603;DHT22;54417;47.454;18.918;2022-10-31T03:36:06;12.00;90.58
67603;DHT22;54417;47.454;18.918;2022-10-31T03:41:35;11.94;90.70
67603;DHT22;54417;47.454;18.918;2022-10-31T03:47:01;11.91;90.51
67603;DHT22;54417;47.454;18.918;2022-10-31T03:52:28;11.81;90.55
67603;DHT22;54417;47.454;18.918;2022-10-31T03:57:59;11.81;90.30
67603;DHT22;54417;47.454;18.918;2022-10-31T04:03:27;11.76;90.42
67603;DHT22;54417;47.454;18.918;2022-10-31T04:08:58;11.67;90.62
67603;DHT22;54417;47.454;18.918;2022-10-31T04:14:26;11.43;91.21
67603;DHT22;54417;47.454;18.918;2022-10-31T04:19:51;11.56;91.15
67603;DHT22;54417;47.454;18.918;2022-10-31T04:25:15;11.65;91.00
67603;DHT22;54417;47.454;18.918;2022-10-31T04:30:40;11.63;91.02
67603;DHT22;54417;47.454;18.918;2022-10-31T04:36:04;11.69;90.84
67603;DHT22;54417;47.454;18.918;2022-10-31T04:41:28;11.63;90.64
67603;DHT22;54417;47.454;18.918;2022-10-31T04:47:04;11.66;90.85
67603;DHT22;54417;47.454;18.918;2022-10-31T04:52:28;11.67;90.69
67603;DHT22;54417;47.454;18.918;2022-10-31T04:57:52;11.60;90.60
67603;DHT22;54417;47.454;18.918;2022-10-31T05:03:19;11.39;90.79
67603;DHT22;54417;47.454;18.918;2022-10-31T05:08:43;11.47;90.93
67603;DHT22;54417;47.454;18.918;2022-10-31T05:14:07;11.53;91.07
67603;DHT22;54417;47.454;18.918;2022-10-31T05:19:51;11.66;90.98
67603;DHT22;54417;47.454;18.918;2022-10-31T05:25:33;11.52;91.19
67603;DHT22;54417;47.454;18.918;2022-10-31T05:30:58;11.52;91.33
67603;DHT22;54417;47.454;18.918;2022-10-31T05:36:24;11.59;91.30
67603;DHT22;54417;47.454;18.918;2022-10-31T05:41:52;11.63;91.25
67603;DHT22;54417;47.454;18.918;2022-10-31T05:47:20;11.59;91.18
67603;DHT22;54417;47.454;18.918;2022-10-31T05:53:15;11.56;91.20
67603;DHT22;54417;47.454;18.918;2022-10-31T05:58:39;11.69;91.09
67603;DHT22;54417;47.454;18.918;2022-10-31T06:04:05;11.65;91.14
67603;DHT22;54417;47.454;18.918;2022-10-31T06:09:32;11.67;91.25
67603;DHT22;54417;47.454;18.918;2022-10-31T06:14:56;11.80;91.08
67603;DHT22;54417;47.454;18.918;2022-10-31T06:20:19;11.81;91.04
67603;DHT22;54417;47.454;18.918;2022-10-31T06:26:01;11.89;91.13
67603;DHT22;54417;47.454;18.918;2022-10-31T06:31:24;11.98;91.03
67603;DHT22;54417;47.454;18.918;2022-10-31T06:36:48;11.97;90.82
67603;DHT22;54417;47.454;18.918;2022-10-31T06:42:17;11.94;90.83
67603;DHT22;54417;47.454;18.918;2022-10-31T06:47:41;11.83;91.13
67603;DHT22;54417;47.454;18.918;2022-10-31T06:53:29;11.70;90.99
67603;DHT22;54417;47.454;18.918;2022-10-31T06:58:54;11.77;90.96
67603;DHT22;54417;47.454;18.918;2022-10-31T07:04:38;11.89;90.74
67603;DHT22;54417;47.454;18.918;2022-10-31T07:10:03;12.01;90.53
67603;DHT22;54417;47.454;18.918;2022-10-31T07:15:47;12.14;90.51
67603;DHT22;54417;47.454;18.918;2022-10-31T07:21:11;12.05;90.69
67603;DHT22;54417;47.454;18.918;2022-10-31T07:26:35;12.04;90.68
67603;DHT22;54417;47.454;18.918;2022-10-31T07:32:00;12.00;90.89
67603;DHT22;54417;47.454;18.918;2022-10-31T07:37:27;12.13;90.83
67603;DHT22;54417;47.454;18.918;2022-10-31T07:42:52;12.13;90.51
67603;DHT22;54417;47.454;18.918;2022-10-31T07:48:47;12.31;90.47
67603;DHT22;54417;47.454;18.918;2022-10-31T07:54:29;12.44;90.09
67603;DHT22;54417;47.454;18.918;2022-10-31T07:59:53;12.56;89.75
67603;DHT22;54417;47.454;18.918;2022-10-31T08:05:19;12.55;89.38
67603;DHT22;54417;47.454;18.918;2022-10-31T08:11:08;12.70;89.28
67603;DHT22;54417;47.454;18.918;2022-10-31T08:16:33;12.90;88.76
67603;DHT22;54417;47.454;18.918;2022-10-31T08:22:01;13.03;88.44
67603;DHT22;54417;47.454;18.918;2022-10-31T08:27:24;13.13;88.08
67603;DHT22;54417;47.454;18.918;2022-10-31T08:32:57;12.78;88.21
67603;DHT22;54417;47.454;18.918;2022-10-31T08:38:49;12.76;88.24
67603;DHT22;54417;47.454;18.918;2022-10-31T08:44:12;12.86;88.29
67603;DHT22;54417;47.454;18.918;2022-10-31T08:49:38;12.97;87.90
67603;DHT22;54417;47.454;18.918;2022-10-31T08:55:05;13.03;87.96
67603;DHT22;54417;47.454;18.918;2022-10-31T09:00:59;13.11;88.08
67603;DHT22;54417;47.454;18.918;2022-10-31T09:06:23;13.04;88.55
67603;DHT22;54417;47.454;18.918;2022-10-31T09:11:51;12.93;88.50
67603;DHT22;54417;47.454;18.918;2022-10-31T09:17:38;13.24;88.65
67603;DHT22;54417;47.454;18.918;2022-10-31T09:23:30;13.37;88.49
67603;DHT22;54417;47.454;18.918;2022-10-31T09:28:58;13.47;88.06
67603;DHT22;54417;47.454;18.918;2022-10-31T09:34:25;13.47;88.17
67603;DHT22;54417;47.454;18.918;2022-10-31T09:40:00;13.47;88.05
67603;DHT22;54417;47.454;18.918;2022-10-31T09:45:37;13.50;88.17
67603;DHT22;54417;47.454;18.918;2022-10-31T09:51:20;13.48;88.24
67603;DHT22;54417;47.454;18.918;2022-10-31T09:57:04;13.57;88.05
67603;DHT22;54417;47.454;18.918;2022-10-31T10:02:34;13.65;87.75
67603;DHT22;54417;47.454;18.918;2022-10-31T10:08:03;13.74;87.70
67603;DHT22;54417;47.454;18.918;2022-10-31T10:14:14;13.66;87.47
67603;DHT22;54417;47.454;18.918;2022-10-31T10:19:52;13.83;87.34
67603;DHT22;54417;47.454;18.918;2022-10-31T10:25:20;13.55;86.72
67603;DHT22;54417;47.454;18.918;2022-10-31T10:30:48;13.71;87.58
67603;DHT22;54417;47.454;18.918;2022-10-31T10:36:20;13.66;87.38
67603;DHT22;54417;47.454;18.918;2022-10-31T10:41:45;13.79;87.20
67603;DHT22;54417;47.454;18.918;2022-10-31T10:47:26;13.76;87.36
67603;DHT22;54417;47.454;18.918;2022-10-31T10:53:11;13.74;87.35
67603;DHT22;54417;47.454;18.918;2022-10-31T10:58:43;13.95;86.89
67603;DHT22;54417;47.454;18.918;2022-10-31T11:04:25;13.99;86.40
67603;DHT22;54417;47.454;18.918;2022-10-31T11:09:50;13.95;86.60
67603;DHT22;54417;47.454;18.918;2022-10-31T11:15:20;13.98;86.72
67603;DHT22;54417;47.454;18.918;2022-10-31T11:20:51;14.08;86.45
67603;DHT22;54417;47.454;18.918;2022-10-31T11:26:19;14.01;86.32
67603;DHT22;54417;47.454;18.918;2022-10-31T11:31:45;14.03;86.32
67603;DHT22;54417;47.454;18.918;2022-10-31T11:37:13;14.08;86.25
67603;DHT22;54417;47.454;18.918;2022-10-31T11:42:41;14.09;86.44
67603;DHT22;54417;47.454;18.918;2022-10-31T11:48:16;14.01;86.39
67603;DHT22;54417;47.454;18.918;2022-10-31T11:53:51;13.96;86.77
67603;DHT22;54417;47.454;18.918;2022-10-31T11:59:26;14.02;86.71
67603;DHT22;54417;47.454;18.918;2022-10-31T12:04:55;13.87;86.48
67603;DHT22;54417;47.454;18.918;2022-10-31T12:10:24;13.96;86.55
67603;DHT22;54417;47.454;18.918;2022-10-31T12:15:59;13.74;86.15
67603;DHT22;54417;47.454;18.918;2022-10-31T12:21:44;13.72;86.48
67603;DHT22;54417;47.454;18.918;2022-10-31T12:27:22;13.44;87.04
67603;DHT22;54417;47.454;18.918;2022-10-31T12:33:12;13.50;87.13
67603;DHT22;54417;47.454;18.918;2022-10-31T12:38:55;13.40;87.58
67603;DHT22;54417;47.454;18.918;2022-10-31T12:45:03;13.47;87.44
67603;DHT22;54417;47.454;18.918;2022-10-31T12:50:47;13.23;87.46
67603;DHT22;54417;47.454;18.918;2022-10-31T12:56:28;13.35;87.95
67603;DHT22;54417;47.454;18.918;2022-10-31T13:01:57;13.30;87.77
67603;DHT22;54417;47.454;18.918;2022-10-31T13:07:27;13.40;87.52
67603;DHT22;54417;47.454;18.918;2022-10-31T13:12:58;13.34;87.50
67603;DHT22;54417;47.454;18.918;2022-10-31T13:18:29;13.26;87.83
67603;DHT22;54417;47.454;18.918;2022-10-31T13:23:58;13.24;87.74
67603;DHT22;54417;47.454;18.918;2022-10-31T13:29:28;13.27;87.74
67603;DHT22;54417;47.454;18.918;2022-10-31T13:34:59;13.34;87.83
67603;DHT22;54417;47.454;18.918;2022-10-31T13:40:33;13.28;88.08
67603;DHT22;54417;47.454;18.918;2022-10-31T13:46:00;13.26;87.95
67603;DHT22;54417;47.454;18.918;2022-10-31T13:51:25;13.20;88.17
67603;DHT22;54417;47.454;18.918;2022-10-31T13:56:52;13.11;88.13
67603;DHT22;54417;47.454;18.918;2022-10-31T14:02:18;12.82;88.92
67603;DHT22;54417;47.454;18.918;2022-10-31T14:07:46;12.78;89.07
67603;DHT22;54417;47.454;18.918;2022-10-31T14:13:18;12.69;89.03
67603;DHT22;54417;47.454;18.918;2022-10-31T14:18:48;12.80;88.93
67603;DHT22;54417;47.454;18.918;2022-10-31T14:24:30;12.76;89.05
67603;DHT22;54417;47.454;18.918;2022-10-31T14:30:08;12.76;89.20
67603;DHT22;54417;47.454;18.918;2022-10-31T14:35:46;12.86;88.93
67603;DHT22;54417;47.454;18.918;2022-10-31T14:41:22;12.93;88.80
67603;DHT22;54417;47.454;18.918;2022-10-31T14:47:01;12.82;88.92
67603;DHT22;54417;47.454;18.918;2022-10-31T14:52:26;12.83;88.69
67603;DHT22;54417;47.454;18.918;2022-10-31T14:57:52;12.76;88.98
67603;DHT22;54417;47.454;18.918;2022-10-31T15:03:22;12.63;89.18
67603;DHT22;54417;47.454;18.918;2022-10-31T15:08:50;12.68;89.24
67603;DHT22;54417;47.454;18.918;2022-10-31T15:14:22;12.52;89.52
67603;DHT22;54417;47.454;18.918;2022-10-31T15:19:48;12.44;89.74
67603;DHT22;54417;47.454;18.918;2022-10-31T15:25:17;12.42;89.92
67603;DHT22;54417;47.454;18.918;2022-10-31T15:30:49;12.42;89.85
67603;DHT22;54417;47.454;18.918;2022-10-31T15:36:20;12.37;89.97
67603;DHT22;54417;47.454;18.918;2022-10-31T15:41:52;12.31;89.99
67603;DHT22;54417;47.454;18.918;2022-10-31T15:47:17;12.22;90.26
67603;DHT22;54417;47.454;18.918;2022-10-31T15:52:44;12.14;90.38
67603;DHT22;54417;47.454;18.918;2022-10-31T15:58:21;12.04;90.58
67603;DHT22;54417;47.454;18.918;2022-10-31T16:03:57;12.08;90.64
67603;DHT22;54417;47.454;18.918;2022-10-31T16:09:23;12.14;90.43
67603;DHT22;54417;47.454;18.918;2022-10-31T16:14:47;11.98;90.73
67603;DHT22;54417;47.454;18.918;2022-10-31T16:20:19;12.10;90.51
67603;DHT22;54417;47.454;18.918;2022-10-31T16:25:46;11.93;90.89
67603;DHT22;54417;47.454;18.918;2022-10-31T16:31:13;11.94;90.89
67603;DHT22;54417;47.454;18.918;2022-10-31T16:36:37;11.98;90.89
67603;DHT22;54417;47.454;18.918;2022-10-31T16:42:03;11.97;90.72
67603;DHT22;54417;47.454;18.918;2022-10-31T16:47:27;12.02;90.49
67603;DHT22;54417;47.454;18.918;2022-10-31T16:52:51;11.94;90.74
67603;DHT22;54417;47.454;18.918;2022-10-31T16:58:36;11.98;90.45
67603;DHT22;54417;47.454;18.918;2022-10-31T17:03:59;12.04;90.38
67603;DHT22;54417;47.454;18.918;2022-10-31T17:09:23;11.91;90.70
67603;DHT22;54417;47.454;18.918;2022-10-31T17:14:50;12.00;90.71
67603;DHT22;54417;47.454;18.918;2022-10-31T17:20:19;11.89;90.94
67603;DHT22;54417;47.454;18.918;2022-10-31T17:25:43;12.01;90.80
67603;DHT22;54417;47.454;18.918;2022-10-31T17:31:22;12.00;90.81
67603;DHT22;54417;47.454;18.918;2022-10-31T17:36:49;12.00;90.66
67603;DHT22;54417;47.454;18.918;2022-10-31T17:42:12;11.90;90.65
67603;DHT22;54417;47.454;18.918;2022-10-31T17:47:37;11.77;91.04
67603;DHT22;54417;47.454;18.918;2022-10-31T17:53:01;11.83;91.17
67603;DHT22;54417;47.454;18.918;2022-10-31T17:58:25;11.65;91.29
67603;DHT22;54417;47.454;18.918;2022-10-31T18:03:50;11.65;91.10
67603;DHT22;54417;47.454;18.918;2022-10-31T18:09:13;11.59;91.42
67603;DHT22;54417;47.454;18.918;2022-10-31T18:14:38;11.63;91.79
67603;DHT22;54417;47.454;18.918;2022-10-31T18:20:10;11.44;91.88
67603;DHT22;54417;47.454;18.918;2022-10-31T18:25:34;11.55;91.82
67603;DHT22;54417;47.454;18.918;2022-10-31T18:31:00;11.51;91.92
67603;DHT22;54417;47.454;18.918;2022-10-31T18:36:25;11.44;92.17
67603;DHT22;54417;47.454;18.918;2022-10-31T18:41:48;11.49;92.07
67603;DHT22;54417;47.454;18.918;2022-10-31T18:47:12;11.53;91.96
67603;DHT22;54417;47.454;18.918;2022-10-31T18:52:37;11.52;92.10
67603;DHT22;54417;47.454;18.918;2022-10-31T18:58:01;11.43;92.05
67603;DHT22;54417;47.454;18.918;2022-10-31T19:03:25;11.47;91.61
67603;DHT22;54417;47.454;18.918;2022-10-31T19:08:55;11.52;91.48
67603;DHT22;54417;47.454;18.918;2022-10-31T19:14:22;11.25;91.74
67603;DHT22;54417;47.454;18.918;2022-10-31T19:19:46;11.33;91.38
67603;DHT22;54417;47.454;18.918;2022-10-31T19:25:11;11.21;91.90
67603;DHT22;54417;47.454;18.918;2022-10-31T19:30:35;11.11;92.08
67603;DHT22;54417;47.454;18.918;2022-10-31T19:35:58;11.24;92.13
67603;DHT22;54417;47.454;18.918;2022-10-31T19:41:25;11.25;91.98
67603;DHT22;54417;47.454;18.918;2022-10-31T19:46:49;11.26;92.11
67603;DHT22;54417;47.454;18.918;2022-10-31T19:52:15;11.22;92.05
67603;DHT22;54417;47.454;18.918;2022-10-31T19:57:40;11.21;92.10
67603;DHT22;54417;47.454;18.918;2022-10-31T20:03:24;11.15;92.09
67603;DHT22;54417;47.454;18.918;2022-10-31T20:08:48;11.22;91.90
67603;DHT22;54417;47.454;18.918;2022-10-31T20:14:19;11.18;91.80
67603;DHT22;54417;47.454;18.918;2022-10-31T20:19:45;11.18;91.76
67603;DHT22;54417;47.454;18.918;2022-10-31T20:25:09;11.26;91.35
67603;DHT22;54417;47.454;18.918;2022-10-31T20:30:37;11.29;91.48
67603;DHT22;54417;47.454;18.918;2022-10-31T20:36:02;11.19;91.58
67603;DHT22;54417;47.454;18.918;2022-10-31T20:41:26;11.14;91.85
67603;DHT22;54417;47.454;18.918;2022-10-31T20:46:51;11.15;91.81
67603;DHT22;54417;47.454;18.918;2022-10-31T20:52:15;11.16;92.01
67603;DHT22;54417;47.454;18.918;2022-10-31T20:57:39;11.22;91.82
67603;DHT22;54417;47.454;18.918;2022-10-31T21:03:07;11.22;91.54
67603;DHT22;54417;47.454;18.918;2022-10-31T21:08:31;11.18;91.57
67603;DHT22;54417;47.454;18.918;2022-10-31T21:13:56;11.21;91.75
67603;DHT22;54417;47.454;18.918;2022-10-31T21:19:22;11.21;91.46
67603;DHT22;54417;47.454;18.918;2022-10-31T21:24:45;11.05;91.90
67603;DHT22;54417;47.454;18.918;2022-10-31T21:30:09;11.12;91.70
67603;DHT22;54417;47.454;18.918;2022-10-31T21:35:34;11.10;91.74
67603;DHT22;54417;47.454;18.918;2022-10-31T21:40:59;11.07;91.76
67603;DHT22;54417;47.454;18.918;2022-10-31T21:46:25;11.05;91.86
67603;DHT22;54417;47.454;18.918;2022-10-31T21:51:50;11.01;91.95
67603;DHT22;54417;47.454;18.918;2022-10-31T21:57:34;11.02;92.03
67603;DHT22;54417;47.454;18.918;2022-10-31T22:02:57;11.04;92.10
67603;DHT22;54417;47.454;18.918;2022-10-31T22:08:22;10.95;92.22
67603;DHT22;54417;47.454;18.918;2022-10-31T22:13:47;11.10;92.16
67603;DHT22;54417;47.454;18.918;2022-10-31T22:19:12;11.15;92.02
67603;DHT22;54417;47.454;18.918;2022-10-31T22:24:38;11.04;92.02
67603;DHT22;54417;47.454;18.918;2022-10-31T22:30:01;11.10;91.88
67603;DHT22;54417;47.454;18.918;2022-10-31T22:35:25;11.04;92.13
67603;DHT22;54417;47.454;18.918;2022-10-31T22:40:55;11.04;91.81
67603;DHT22;54417;47.454;18.918;2022-10-31T22:46:20;10.97;91.95
67603;DHT22;54417;47.454;18.918;2022-10-31T22:51:44;11.00;91.81
67603;DHT22;54417;47.454;18.918;2022-10-31T22:57:09;11.08;91.63
67603;DHT22;54417;47.454;18.918;2022-10-31T23:02:32;10.95;92.05
67603;DHT22;54417;47.454;18.918;2022-10-31T23:07:56;10.98;92.05
67603;DHT22;54417;47.454;18.918;2022-10-31T23:13:22;11.00;92.19
67603;DHT22;54417;47.454;18.918;2022-10-31T23:19:03;11.04;92.11
67603;DHT22;54417;47.454;18.918;2022-10-31T23:24:32;11.00;91.96
67603;DHT22;54417;47.454;18.918;2022-10-31T23:29:58;10.97;91.85
67603;DHT22;54417;47.454;18.918;2022-10-31T23:35:22;10.98;91.85
67603;DHT22;54417;47.454;18.918;2022-10-31T23:40:46;10.90;92.26
67603;DHT22;54417;47.454;18.918;2022-10-31T23:46:11;11.02;92.10
67603;DHT22;54417;47.454;18.918;2022-10-31T23:51:34;10.98;92.24
67603;DHT22;54417;47.454;18.918;2022-10-31T23:56:58;11.08;92.19
